createdAt,value
2019-02-20T00:00:52.255Z,15.63
2019-02-20T00:03:21.815Z,11.97
2019-02-20T00:05:51.410Z,15.00
2019-02-20T00:08:21.566Z,11.80
2019-02-20T00:10:51.079Z,10.77
2019-02-20T00:13:20.642Z,18.80
2019-02-20T00:15:50.159Z,15.93
2019-02-20T00:18:19.818Z,8.50
2019-02-20T00:20:49.349Z,27.03
2019-02-20T00:23:18.842Z,25.13
2019-02-20T00:25:48.362Z,17.33
2019-02-20T00:28:18.011Z,20.20
2019-02-20T00:30:47.550Z,14.20
2019-02-20T00:33:17.044Z,15.30
2019-02-20T00:35:46.634Z,14.03
2019-02-20T00:38:16.198Z,24.47
2019-02-20T00:40:45.740Z,12.90
2019-02-20T00:43:15.274Z,14.30
2019-02-20T00:46:04.802Z,17.70
2019-02-20T00:48:38.932Z,15.17
2019-02-20T00:51:13.216Z,16.23
2019-02-20T00:53:47.374Z,15.73
2019-02-20T00:56:16.894Z,18.67
2019-02-20T00:58:46.373Z,28.03
2019-02-20T01:01:16.005Z,20.63
2019-02-20T01:03:45.598Z,17.43
2019-02-20T01:06:15.306Z,19.57
2019-02-20T01:08:44.782Z,18.57
2019-02-20T01:11:14.309Z,13.13
2019-02-20T01:13:43.942Z,16.27
2019-02-20T01:16:13.578Z,19.37
2019-02-20T01:18:43.152Z,16.93
2019-02-20T01:21:12.875Z,20.90
2019-02-20T01:23:42.403Z,20.03
2019-02-20T01:26:11.942Z,17.53
2019-02-20T01:28:41.471Z,11.67
2019-02-20T01:31:10.985Z,14.13
2019-02-20T01:33:40.631Z,12.30
2019-02-20T01:36:10.198Z,14.03
2019-02-20T01:38:39.714Z,19.87
2019-02-20T01:41:09.202Z,17.87
2019-02-20T01:43:38.858Z,20.13
2019-02-20T01:46:08.417Z,27.93
2019-02-20T01:48:38.014Z,13.87
2019-02-20T01:51:07.677Z,17.17
2019-02-20T01:53:37.195Z,11.77
2019-02-20T01:56:06.698Z,17.27
2019-02-20T01:58:36.219Z,13.73
2019-02-20T02:01:06.017Z,16.13
2019-02-20T02:03:35.899Z,19.87
2019-02-20T02:06:07.095Z,19.80
2019-02-20T02:08:36.675Z,18.50
2019-02-20T02:11:06.370Z,13.20
2019-02-20T02:13:37.558Z,20.23
2019-02-20T02:16:07.210Z,21.23
2019-02-20T02:18:36.727Z,17.50
2019-02-20T02:21:06.218Z,27.37
2019-02-20T02:23:35.734Z,15.13
2019-02-20T02:26:10.944Z,14.10
2019-02-20T02:28:36.556Z,12.60
2019-02-20T02:31:06.074Z,20.17
2019-02-20T02:33:35.553Z,19.67
2019-02-20T02:36:05.075Z,15.20
2019-02-20T02:38:34.758Z,24.47
2019-02-20T02:41:04.515Z,15.83
2019-02-20T02:43:34.060Z,21.33
2019-02-20T02:46:03.930Z,18.23
2019-02-20T02:48:33.419Z,21.70
2019-02-20T02:51:03.030Z,20.10
2019-02-20T02:53:32.583Z,15.97
2019-02-20T02:56:02.102Z,16.17
2019-02-20T02:58:31.590Z,16.33
2019-02-20T03:01:01.106Z,14.53
2019-02-20T03:03:30.602Z,22.43
2019-02-20T03:06:00.119Z,15.97
2019-02-20T03:08:29.599Z,15.90
2019-02-20T03:10:59.117Z,18.53
2019-02-20T03:13:28.694Z,15.97
2019-02-20T03:15:58.290Z,43.63
2019-02-20T03:18:28.046Z,21.93
2019-02-20T03:20:57.738Z,15.67
2019-02-20T03:23:27.236Z,20.53
2019-02-20T03:25:56.814Z,24.47
2019-02-20T03:28:26.306Z,24.30
2019-02-20T03:30:55.812Z,17.43
2019-02-20T03:33:25.303Z,24.97
2019-02-20T03:35:54.820Z,24.00
2019-02-20T03:38:30.371Z,18.73
2019-02-20T03:40:55.527Z,18.20
2019-02-20T03:43:44.374Z,18.30
2019-02-20T03:46:14.106Z,16.27
2019-02-20T03:48:43.726Z,22.63
2019-02-20T03:51:13.242Z,20.30
2019-02-20T03:53:51.269Z,20.00
2019-02-20T03:56:14.346Z,18.57
2019-02-20T03:58:43.869Z,21.43
2019-02-20T04:01:13.381Z,26.60
2019-02-20T04:03:42.870Z,22.07
2019-02-20T04:06:12.354Z,22.97
2019-02-20T04:08:41.866Z,23.70
2019-02-20T04:11:11.425Z,20.43
2019-02-20T04:13:41.012Z,24.63
2019-02-20T04:16:10.599Z,23.40
2019-02-20T04:18:40.224Z,19.90
2019-02-20T04:21:09.787Z,21.53
2019-02-20T04:23:39.570Z,17.83
2019-02-20T04:26:09.915Z,19.10
2019-02-20T04:28:39.723Z,21.07
2019-02-20T04:31:09.214Z,23.57
2019-02-20T04:33:38.729Z,21.30
2019-02-20T04:36:08.401Z,16.30
2019-02-20T04:38:38.110Z,24.73
2019-02-20T04:41:07.682Z,17.90
2019-02-20T04:43:37.210Z,18.43
2019-02-20T04:46:06.960Z,19.63
2019-02-20T04:48:36.488Z,26.70
2019-02-20T04:51:06.048Z,26.50
2019-02-20T04:53:35.631Z,27.43
2019-02-20T04:56:05.128Z,13.37
2019-02-20T04:58:34.664Z,15.23
2019-02-20T05:01:04.327Z,17.30
2019-02-20T05:03:33.888Z,21.20
2019-02-20T05:06:03.594Z,22.40
2019-02-20T05:08:33.115Z,13.17
2019-02-20T05:11:02.793Z,17.97
2019-02-20T05:13:32.387Z,26.03
2019-02-20T05:16:01.871Z,25.13
2019-02-20T05:18:31.394Z,25.13
2019-02-20T05:21:00.950Z,19.13
2019-02-20T05:23:30.529Z,32.87
2019-02-20T05:26:00.011Z,14.03
2019-02-20T05:28:29.682Z,17.53
2019-02-20T05:30:59.174Z,18.10
2019-02-20T05:33:28.661Z,15.73
2019-02-20T05:35:58.257Z,19.13
2019-02-20T05:38:27.823Z,20.07
2019-02-20T05:40:57.396Z,23.63
2019-02-20T05:43:26.893Z,19.60
2019-02-20T05:45:56.475Z,15.73
2019-02-20T05:48:25.985Z,20.30
2019-02-20T05:50:55.551Z,21.33
2019-02-20T05:53:25.066Z,19.63
2019-02-20T05:55:54.625Z,17.40
2019-02-20T05:58:24.194Z,15.10
2019-02-20T06:00:53.721Z,19.37
2019-02-20T06:03:23.265Z,16.87
2019-02-20T06:05:52.814Z,12.17
2019-02-20T06:08:22.347Z,19.40
2019-02-20T06:10:51.866Z,18.20
2019-02-20T06:13:21.429Z,12.83
2019-02-20T06:15:50.929Z,29.77
2019-02-20T06:18:20.513Z,19.83
2019-02-20T06:20:50.081Z,16.37
2019-02-20T06:23:19.730Z,11.70
2019-02-20T06:25:49.267Z,15.83
2019-02-20T06:28:18.849Z,25.03
2019-02-20T06:30:48.441Z,21.27
2019-02-20T06:33:17.987Z,25.23
2019-02-20T06:35:47.510Z,11.27
2019-02-20T06:38:17.124Z,14.97
2019-02-20T06:40:46.675Z,12.70
2019-02-20T06:43:16.247Z,11.83
2019-02-20T06:45:45.742Z,14.03
2019-02-20T06:48:15.351Z,20.80
2019-02-20T06:50:44.834Z,13.33
2019-02-20T06:53:14.422Z,22.57
2019-02-20T06:55:43.907Z,16.60
2019-02-20T06:58:13.446Z,13.33
2019-02-20T07:00:43.035Z,13.37
2019-02-20T07:03:12.542Z,7.00
2019-02-20T07:05:42.046Z,13.60
2019-02-20T07:08:33.245Z,14.43
2019-02-20T07:11:15.240Z,14.03
2019-02-20T07:13:55.977Z,8.10
2019-02-20T07:16:31.072Z,19.60
2019-02-20T07:19:12.455Z,15.67
2019-02-20T07:21:45.098Z,13.50
2019-02-20T07:24:20.878Z,16.13
2019-02-20T07:27:08.534Z,15.97
2019-02-20T07:30:00.527Z,10.80
2019-02-20T07:32:33.130Z,12.43
2019-02-20T07:35:02.724Z,9.50
2019-02-20T07:37:32.270Z,12.40
2019-02-20T07:40:01.884Z,10.50
2019-02-20T07:42:31.536Z,10.67
2019-02-20T07:45:01.058Z,22.90
2019-02-20T07:47:30.603Z,15.83
2019-02-20T07:50:00.344Z,20.57
2019-02-20T07:52:29.955Z,26.20
2019-02-20T07:54:59.484Z,13.50
2019-02-20T07:57:28.980Z,22.90
2019-02-20T07:59:58.587Z,18.13
2019-02-20T08:02:28.350Z,15.93
2019-02-20T08:04:57.868Z,16.30
2019-02-20T08:07:27.379Z,20.70
2019-02-20T08:09:56.982Z,22.73
2019-02-20T08:12:26.459Z,18.33
2019-02-20T08:14:56.045Z,15.00
2019-02-20T08:17:25.594Z,17.37
2019-02-20T08:19:55.119Z,11.20
2019-02-20T08:22:24.591Z,27.10
2019-02-20T08:24:54.437Z,14.80
2019-02-20T08:27:24.472Z,14.73
2019-02-20T08:29:54.374Z,13.03
2019-02-20T08:32:23.923Z,14.10
2019-02-20T08:34:53.695Z,18.23
2019-02-20T08:37:23.431Z,18.20
2019-02-20T08:39:53.211Z,14.37
2019-02-20T08:42:22.934Z,25.40
2019-02-20T08:44:52.687Z,15.37
2019-02-20T08:47:22.269Z,12.70
2019-02-20T08:49:51.960Z,14.30
2019-02-20T08:52:21.780Z,12.50
2019-02-20T08:54:51.402Z,20.43
2019-02-20T08:57:20.988Z,24.20
2019-02-20T08:59:51.730Z,18.77
2019-02-20T09:02:21.442Z,16.83
2019-02-20T09:04:50.947Z,18.13
2019-02-20T09:07:20.463Z,13.77
2019-02-20T09:09:49.970Z,16.50
2019-02-20T09:12:19.574Z,22.93
2019-02-20T09:14:49.077Z,25.93
2019-02-20T09:17:18.618Z,18.73
2019-02-20T09:19:48.195Z,17.43
2019-02-20T09:22:17.801Z,19.37
2019-02-20T09:24:47.358Z,20.33
2019-02-20T09:27:17.022Z,16.57
2019-02-20T09:29:46.534Z,14.20
2019-02-20T09:32:16.124Z,12.03
2019-02-20T09:34:45.637Z,15.10
2019-02-20T09:37:15.156Z,13.13
2019-02-20T09:39:44.718Z,20.60
2019-02-20T09:42:15.508Z,18.40
2019-02-20T09:44:46.034Z,13.47
2019-02-20T09:47:15.708Z,20.47
2019-02-20T09:49:45.202Z,18.27
2019-02-20T09:52:15.015Z,16.93
2019-02-20T09:54:44.549Z,24.20
2019-02-20T09:57:14.079Z,20.43
2019-02-20T09:59:43.783Z,17.40
2019-02-20T10:02:13.328Z,20.37
2019-02-20T10:04:43.135Z,17.57
2019-02-20T10:07:12.705Z,20.00
2019-02-20T10:09:42.291Z,26.57
2019-02-20T10:12:11.801Z,17.27
2019-02-20T10:14:41.330Z,19.10
2019-02-20T10:17:11.734Z,19.50
2019-02-20T10:19:41.326Z,21.07
2019-02-20T10:22:10.844Z,21.00
2019-02-20T10:24:40.374Z,17.17
2019-02-20T10:27:09.958Z,17.20
2019-02-20T10:29:39.563Z,15.70
2019-02-20T10:32:09.207Z,17.33
2019-02-20T10:34:38.710Z,21.53
2019-02-20T10:37:08.289Z,18.03
2019-02-20T10:39:38.021Z,23.07
2019-02-20T10:42:07.595Z,17.30
2019-02-20T10:44:37.122Z,18.70
2019-02-20T10:47:06.626Z,16.43
2019-02-20T10:49:36.146Z,17.27
2019-02-20T10:52:05.727Z,16.80
2019-02-20T10:54:35.318Z,20.07
2019-02-20T10:57:04.874Z,17.50
2019-02-20T10:59:34.477Z,15.27
2019-02-20T11:02:04.125Z,18.37
2019-02-20T11:04:33.810Z,18.50
2019-02-20T11:07:03.502Z,20.70
2019-02-20T11:09:33.387Z,14.20
2019-02-20T11:12:03.055Z,20.87
2019-02-20T11:14:32.890Z,19.00
2019-02-20T11:17:02.416Z,13.33
2019-02-20T11:19:32.103Z,18.33
2019-02-20T11:22:01.627Z,22.60
2019-02-20T11:24:31.566Z,15.90
2019-02-20T11:27:01.106Z,22.10
2019-02-20T11:29:30.830Z,14.77
2019-02-20T11:32:00.366Z,20.47
2019-02-20T11:34:29.930Z,17.30
2019-02-20T11:37:01.155Z,17.60
2019-02-20T11:39:37.508Z,22.33
2019-02-20T11:42:03.728Z,20.13
2019-02-20T11:44:33.391Z,18.37
2019-02-20T11:47:03.054Z,17.23
2019-02-20T11:49:32.570Z,20.30
2019-02-20T11:52:02.105Z,22.47
2019-02-20T11:54:32.183Z,17.33
2019-02-20T11:57:01.798Z,28.73
2019-02-20T11:59:31.291Z,19.27
2019-02-20T12:02:00.904Z,17.67
2019-02-20T12:04:30.482Z,39.87
2019-02-20T12:07:00.086Z,16.40
2019-02-20T12:09:29.675Z,27.63
2019-02-20T12:11:59.225Z,21.47
2019-02-20T12:14:28.790Z,20.30
2019-02-20T12:16:58.399Z,16.50
2019-02-20T12:19:27.931Z,13.47
2019-02-20T12:21:57.510Z,18.30
2019-02-20T12:24:27.235Z,18.53
2019-02-20T12:26:56.822Z,22.20
2019-02-20T12:29:26.588Z,17.50
2019-02-20T12:31:56.636Z,21.33
2019-02-20T12:34:26.502Z,21.40
2019-02-20T12:36:56.026Z,19.63
2019-02-20T12:39:25.647Z,26.90
2019-02-20T12:41:55.227Z,18.17
2019-02-20T12:44:24.847Z,30.83
2019-02-20T12:46:54.490Z,16.63
2019-02-20T12:49:24.094Z,30.03
2019-02-20T12:51:55.053Z,20.20
2019-02-20T12:54:24.747Z,18.57
2019-02-20T12:56:54.320Z,15.57
2019-02-20T12:59:23.982Z,22.87
2019-02-20T13:01:53.628Z,21.33
2019-02-20T13:04:24.645Z,24.00
2019-02-20T13:06:59.414Z,21.83
2019-02-20T13:09:25.988Z,19.20
2019-02-20T13:11:55.635Z,15.90
2019-02-20T13:14:25.195Z,22.07
2019-02-20T13:16:54.770Z,16.67
2019-02-20T13:19:24.411Z,15.90
2019-02-20T13:21:53.954Z,13.20
2019-02-20T13:24:23.616Z,18.87
2019-02-20T13:26:53.378Z,11.17
2019-02-20T13:29:23.122Z,16.53
2019-02-20T13:31:52.649Z,18.13
2019-02-20T13:34:22.248Z,10.80
2019-02-20T13:36:51.788Z,16.70
2019-02-20T13:39:21.316Z,17.30
2019-02-20T13:41:51.001Z,13.20
2019-02-20T13:44:20.597Z,17.40
2019-02-20T13:46:50.194Z,18.07
2019-02-20T13:49:19.827Z,17.87
2019-02-20T13:51:49.523Z,18.67
2019-02-20T13:54:19.235Z,13.90
2019-02-20T13:56:48.892Z,17.67
2019-02-20T13:59:18.689Z,15.93
2019-02-20T14:01:48.379Z,21.13
2019-02-20T14:04:18.324Z,19.57
2019-02-20T14:06:48.083Z,12.93
2019-02-20T14:09:17.695Z,14.23
2019-02-20T14:11:47.675Z,20.13
2019-02-20T14:14:17.254Z,14.93
2019-02-20T14:16:47.235Z,17.03
2019-02-20T14:19:17.350Z,17.10
2019-02-20T14:21:46.975Z,20.63
2019-02-20T14:24:16.607Z,15.97
2019-02-20T14:26:46.381Z,13.10
2019-02-20T14:29:16.200Z,6.63
2019-02-20T14:31:46.037Z,7.90
2019-02-20T14:34:15.906Z,8.60
2019-02-20T14:36:45.427Z,7.87
2019-02-20T14:39:14.999Z,5.97
2019-02-20T14:41:44.494Z,4.63
2019-02-20T14:44:14.035Z,6.00
2019-02-20T14:46:43.709Z,8.60
2019-02-20T14:49:13.863Z,9.13
2019-02-20T14:51:43.443Z,8.60
2019-02-20T14:54:12.963Z,7.07
2019-02-20T14:56:42.711Z,9.70
2019-02-20T14:59:12.369Z,7.50
2019-02-20T15:01:42.010Z,8.67
2019-02-20T15:04:12.131Z,8.03
2019-02-20T15:06:41.866Z,10.10
2019-02-20T15:09:11.547Z,8.53
2019-02-20T15:11:41.289Z,6.20
2019-02-20T15:14:11.236Z,10.57
2019-02-20T15:16:40.920Z,7.90
2019-02-20T15:19:11.219Z,5.17
2019-02-20T15:21:41.020Z,5.70
2019-02-20T15:24:11.053Z,8.23
2019-02-20T15:26:41.036Z,10.33
2019-02-20T15:29:11.035Z,5.70
2019-02-20T15:31:40.887Z,7.23
2019-02-20T15:34:10.918Z,14.13
2019-02-20T15:36:43.572Z,7.67
2019-02-20T15:39:13.957Z,6.47
2019-02-20T15:41:43.836Z,10.27
2019-02-20T15:44:13.788Z,7.13
2019-02-20T15:46:43.371Z,8.80
2019-02-20T15:49:13.190Z,13.20
2019-02-20T15:51:42.864Z,6.57
2019-02-20T15:54:12.521Z,14.83
2019-02-20T15:56:42.235Z,12.70
2019-02-20T15:59:11.954Z,6.87
2019-02-20T16:01:41.555Z,11.07
2019-02-20T16:04:11.134Z,9.30
2019-02-20T16:06:40.803Z,10.00
2019-02-20T16:09:10.437Z,20.17
2019-02-20T16:11:59.379Z,8.50
2019-02-20T16:14:29.416Z,9.20
2019-02-20T16:16:59.077Z,8.30
2019-02-20T16:19:30.015Z,15.65
2019-02-20T16:21:59.619Z,18.87
2019-02-20T16:24:29.550Z,13.70
2019-02-20T16:26:59.290Z,13.13
2019-02-20T16:29:29.451Z,10.20
2019-02-20T16:31:59.298Z,10.90
2019-02-20T16:34:29.124Z,21.30
2019-02-20T16:36:59.091Z,12.13
2019-02-20T16:39:28.907Z,10.33
2019-02-20T16:41:58.703Z,10.67
2019-02-20T16:44:28.751Z,10.70
2019-02-20T16:46:58.411Z,9.43
2019-02-20T16:49:28.047Z,14.70
2019-02-20T16:51:57.853Z,11.10
2019-02-20T16:54:27.498Z,8.43
2019-02-20T16:56:57.267Z,10.70
2019-02-20T16:59:27.356Z,16.33
2019-02-20T17:01:57.043Z,13.43
2019-02-20T17:04:26.745Z,12.50
2019-02-20T17:06:56.361Z,12.70
2019-02-20T17:09:26.204Z,13.20
2019-02-20T17:11:55.923Z,15.63
2019-02-20T17:14:25.734Z,11.77
2019-02-20T17:16:55.571Z,13.20
2019-02-20T17:19:26.435Z,15.90
2019-02-20T17:21:56.173Z,22.10
2019-02-20T17:24:25.984Z,11.43
2019-02-20T17:26:55.804Z,9.57
2019-02-20T17:29:25.688Z,13.87
2019-02-20T17:31:55.174Z,12.20
2019-02-20T17:34:24.838Z,8.00
2019-02-20T17:37:14.121Z,15.50
2019-02-20T17:39:44.169Z,11.80
2019-02-20T17:42:13.871Z,14.40
2019-02-20T17:44:43.459Z,9.67
2019-02-20T17:47:13.583Z,10.33
2019-02-20T17:49:43.319Z,10.97
2019-02-20T17:52:12.994Z,12.60
2019-02-20T17:54:42.978Z,9.77
2019-02-20T17:57:12.521Z,13.77
2019-02-20T17:59:42.191Z,14.03
2019-02-20T18:02:11.765Z,11.50
2019-02-20T18:04:41.558Z,9.70
2019-02-20T18:07:11.250Z,16.30
2019-02-20T18:09:40.921Z,13.60
2019-02-20T18:12:10.452Z,15.72
2019-02-20T18:14:40.233Z,14.33
2019-02-20T18:17:10.273Z,12.10
2019-02-20T18:19:40.021Z,10.20
2019-02-20T18:22:09.668Z,14.18
2019-02-20T18:24:39.670Z,11.90
2019-02-20T18:27:09.350Z,12.73
2019-02-20T18:29:38.992Z,13.30
2019-02-20T18:32:08.662Z,13.50
2019-02-20T18:34:38.666Z,15.33
2019-02-20T18:37:08.360Z,16.20
2019-02-20T18:39:37.949Z,22.47
2019-02-20T18:42:07.694Z,20.60
2019-02-20T18:44:37.380Z,18.33
2019-02-20T18:47:07.640Z,16.47
2019-02-20T18:49:38.918Z,22.47
2019-02-20T18:52:08.933Z,21.03
2019-02-20T18:54:38.554Z,21.17
2019-02-20T18:57:08.185Z,17.63
2019-02-20T18:59:37.868Z,21.20
2019-02-20T19:33:39.946Z,18.77
2019-02-20T19:39:08.343Z,21.70
2019-02-20T19:42:03.434Z,24.67
2019-02-20T19:44:45.176Z,22.70
2019-02-20T19:47:39.195Z,19.60
2019-02-20T19:50:23.647Z,22.83
2019-02-20T19:53:01.968Z,24.97
2019-02-20T19:55:52.894Z,23.70
2019-02-20T19:58:37.559Z,23.90
2019-02-20T20:01:31.353Z,29.13
2019-02-20T20:04:04.069Z,21.80
2019-02-20T20:06:42.445Z,26.67
2019-02-20T20:09:24.354Z,25.30
2019-02-20T20:12:15.049Z,25.07
2019-02-20T20:15:00.034Z,27.53
2019-02-20T20:17:38.914Z,21.60
2019-02-20T20:20:16.427Z,28.90
2019-02-20T20:23:11.545Z,20.13
2019-02-20T20:25:49.728Z,25.17
2019-02-20T20:28:34.098Z,19.40
2019-02-20T20:31:24.668Z,25.90
2019-02-20T20:34:03.143Z,20.50
2019-02-20T20:36:59.987Z,27.33
2019-02-20T20:39:44.794Z,25.23
2019-02-20T20:42:35.906Z,21.83
2019-02-20T20:45:20.518Z,25.80
2019-02-20T20:47:59.056Z,30.47
2019-02-20T20:50:31.971Z,24.30
2019-02-20T20:53:36.294Z,30.13
2019-02-20T20:56:11.604Z,25.07
2019-02-20T20:58:58.642Z,31.00
2019-02-20T21:01:46.392Z,30.73
2019-02-20T21:04:36.868Z,20.63
2019-02-20T21:07:24.620Z,30.27
2019-02-20T21:09:57.362Z,25.47
2019-02-20T21:12:53.939Z,22.87
2019-02-20T21:15:59.926Z,25.27
2019-02-20T21:18:55.217Z,29.23
2019-02-20T21:21:30.742Z,31.40
2019-02-20T21:24:03.955Z,32.97
2019-02-20T21:26:43.694Z,24.43
2019-02-20T21:29:28.213Z,30.80
2019-02-20T21:32:09.001Z,26.17
2019-02-20T21:34:47.228Z,27.43
2019-02-20T21:37:38.838Z,24.77
2019-02-20T21:40:26.513Z,30.57
2019-02-20T21:43:08.508Z,34.30
2019-02-20T21:45:50.282Z,27.13
2019-02-20T21:48:26.066Z,25.70
2019-02-20T21:50:58.706Z,24.80
2019-02-20T21:53:37.302Z,30.13
2019-02-20T21:56:34.082Z,36.13
2019-02-20T21:59:18.726Z,21.93
2019-02-20T22:02:00.211Z,24.10
2019-02-20T22:04:51.118Z,25.10
2019-02-20T22:07:57.438Z,23.70
2019-02-20T22:11:04.652Z,29.50
2019-02-20T22:14:03.247Z,26.97
2019-02-20T22:16:44.480Z,27.33
2019-02-20T22:19:41.570Z,29.17
2019-02-20T22:22:35.531Z,32.80
2019-02-20T22:25:29.234Z,29.57
2019-02-20T22:28:19.661Z,28.17
2019-02-20T22:31:21.078Z,31.20
2019-02-20T22:34:05.122Z,38.27
2019-02-20T22:37:12.407Z,25.57
2019-02-20T22:39:45.016Z,29.27
2019-02-20T22:42:20.775Z,32.00
2019-02-20T22:45:14.723Z,29.60
2019-02-20T22:47:50.178Z,28.13
2019-02-20T22:50:31.143Z,20.70
2019-02-20T22:53:33.395Z,34.60
2019-02-20T22:56:33.253Z,30.23
2019-02-20T22:59:26.475Z,25.53
2019-02-20T23:02:25.636Z,33.67
2019-02-20T23:05:35.532Z,24.87
2019-02-20T23:08:26.203Z,29.77
2019-02-20T23:11:25.903Z,29.90
2019-02-20T23:14:42.407Z,26.17
2019-02-20T23:17:29.722Z,23.40
2019-02-20T23:20:17.938Z,24.83
2019-02-20T23:23:05.939Z,22.73
2019-02-20T23:25:54.479Z,24.80
2019-02-20T23:28:42.389Z,23.50
2019-02-20T23:31:30.071Z,26.90
2019-02-20T23:34:18.123Z,27.83
2019-02-20T23:37:06.427Z,28.23
2019-02-20T23:39:53.861Z,26.80
2019-02-20T23:42:41.643Z,22.63
2019-02-20T23:45:28.923Z,25.93
2019-02-20T23:48:16.747Z,26.90
2019-02-20T23:51:04.570Z,23.77
2019-02-20T23:53:52.272Z,19.20
2019-02-20T23:56:40.418Z,23.07
2019-02-20T23:59:28.268Z,28.90
